createdAt,value
2022-12-15T00:02:13.567Z,100.00
2022-12-15T00:04:58.931Z,100.00
2022-12-15T00:07:43.848Z,100.00
2022-12-15T00:10:29.291Z,100.00
2022-12-15T00:13:14.197Z,100.00
2022-12-15T00:15:59.045Z,100.00
2022-12-15T00:18:44.212Z,100.00
2022-12-15T00:21:28.985Z,100.00
2022-12-15T00:24:14.289Z,100.00
2022-12-15T00:26:59.095Z,100.00
2022-12-15T00:29:43.922Z,100.00
2022-12-15T00:32:28.737Z,100.00
2022-12-15T00:35:13.602Z,100.00
2022-12-15T00:37:58.980Z,100.00
2022-12-15T00:40:25.512Z,100.00
2022-12-15T00:42:52.349Z,100.00
2022-12-15T00:45:18.745Z,100.00
2022-12-15T00:47:45.367Z,98.72
2022-12-15T00:50:30.316Z,98.85
2022-12-15T00:53:15.279Z,98.01
2022-12-15T00:56:00.730Z,98.50
2022-12-15T00:58:45.806Z,98.90
2022-12-15T01:01:31.551Z,99.19
2022-12-15T01:04:16.689Z,99.20
2022-12-15T01:07:01.702Z,98.95
2022-12-15T01:09:46.927Z,99.20
2022-12-15T01:12:31.889Z,99.49
2022-12-15T01:15:16.889Z,100.00
2022-12-15T01:18:01.651Z,100.00
2022-12-15T01:20:32.735Z,99.89
2022-12-15T01:22:59.576Z,99.87
2022-12-15T01:25:27.567Z,100.00
2022-12-15T01:27:54.140Z,100.00
2022-12-15T01:30:23.706Z,100.00
2022-12-15T01:32:50.830Z,100.00
2022-12-15T01:35:17.871Z,100.00
2022-12-15T01:37:44.747Z,100.00
2022-12-15T01:40:34.751Z,100.00
2022-12-15T01:43:01.994Z,100.00
2022-12-15T01:45:28.422Z,100.00
2022-12-15T01:48:07.446Z,100.00
2022-12-15T01:50:41.058Z,100.00
2022-12-15T01:53:08.855Z,100.00
2022-12-15T01:55:36.752Z,100.00
2022-12-15T01:58:07.139Z,100.00
2022-12-15T02:00:34.509Z,100.00
2022-12-15T02:03:02.680Z,100.00
2022-12-15T02:05:31.829Z,100.00
2022-12-15T02:08:00.076Z,100.00
2022-12-15T02:10:34.929Z,100.00
2022-12-15T02:13:15.702Z,100.00
2022-12-15T02:15:42.120Z,100.00
2022-12-15T02:18:46.240Z,100.00
2022-12-15T02:21:41.750Z,100.00
2022-12-15T02:24:08.275Z,100.00
2022-12-15T02:26:38.080Z,100.00
2022-12-15T02:29:48.743Z,100.00
2022-12-15T02:32:21.278Z,100.00
2022-12-15T02:34:56.321Z,100.00
2022-12-15T02:37:38.805Z,100.00
2022-12-15T02:40:08.173Z,100.00
2022-12-15T02:42:39.138Z,100.00
2022-12-15T02:45:10.179Z,100.00
2022-12-15T02:47:51.594Z,100.00
2022-12-15T02:50:30.172Z,100.00
2022-12-15T02:53:40.956Z,100.00
2022-12-15T02:56:25.230Z,100.00
2022-12-15T02:58:57.793Z,100.00
2022-12-15T03:01:36.955Z,100.00
2022-12-15T03:04:06.966Z,100.00
2022-12-15T03:06:33.477Z,100.00
2022-12-15T03:09:00.049Z,100.00
2022-12-15T03:11:26.777Z,100.00
2022-12-15T03:13:54.176Z,100.00
2022-12-15T03:16:21.628Z,100.00
2022-12-15T03:18:48.280Z,100.00
2022-12-15T03:21:14.837Z,100.00
2022-12-15T03:23:41.398Z,100.00
2022-12-15T03:26:07.992Z,100.00
2022-12-15T03:28:34.796Z,100.00
2022-12-15T03:31:01.364Z,100.00
2022-12-15T03:33:28.311Z,100.00
2022-12-15T03:35:55.732Z,100.00
2022-12-15T03:38:22.243Z,100.00
2022-12-15T03:40:48.709Z,100.00
2022-12-15T03:43:15.210Z,100.00
2022-12-15T03:45:41.816Z,100.00
2022-12-15T03:48:08.442Z,100.00
2022-12-15T03:50:35.622Z,100.00
2022-12-15T03:53:04.163Z,100.00
2022-12-15T03:55:31.316Z,100.00
2022-12-15T03:57:59.274Z,100.00
2022-12-15T04:00:26.773Z,100.00
2022-12-15T04:02:54.033Z,100.00
2022-12-15T04:05:25.794Z,100.00
2022-12-15T04:07:53.282Z,100.00
2022-12-15T04:10:19.921Z,100.00
2022-12-15T04:12:46.472Z,100.00
2022-12-15T04:15:13.193Z,100.00
2022-12-15T04:17:40.061Z,100.00
2022-12-15T04:20:10.794Z,100.00
2022-12-15T04:22:38.443Z,100.00
2022-12-15T04:25:25.723Z,100.00
2022-12-15T04:28:10.525Z,100.00
2022-12-15T04:30:56.969Z,100.00
2022-12-15T04:33:42.812Z,100.00
2022-12-15T04:36:30.511Z,100.00
2022-12-15T04:39:16.486Z,100.00
2022-12-15T04:42:01.913Z,100.00
2022-12-15T04:44:50.075Z,100.00
2022-12-15T04:47:35.471Z,100.00
2022-12-15T04:50:20.339Z,100.00
2022-12-15T04:53:05.105Z,100.00
2022-12-15T04:55:54.161Z,100.00
2022-12-15T04:58:39.036Z,100.00
2022-12-15T05:01:24.554Z,100.00
2022-12-15T05:04:10.092Z,100.00
2022-12-15T05:06:54.933Z,100.00
2022-12-15T05:09:39.877Z,100.00
2022-12-15T05:12:25.207Z,100.00
2022-12-15T05:15:10.194Z,100.00
2022-12-15T05:17:55.095Z,100.00
2022-12-15T05:20:40.238Z,100.00
2022-12-15T05:23:25.353Z,100.00
2022-12-15T05:26:10.210Z,100.00
2022-12-15T05:28:55.316Z,100.00
2022-12-15T05:31:40.090Z,100.00
2022-12-15T05:34:07.184Z,100.00
2022-12-15T05:36:33.815Z,100.00
2022-12-15T05:39:00.361Z,100.00
2022-12-15T05:41:26.953Z,100.00
2022-12-15T05:43:53.478Z,100.00
2022-12-15T05:46:20.145Z,100.00
2022-12-15T05:48:47.041Z,100.00
2022-12-15T05:51:13.672Z,100.00
2022-12-15T05:53:42.050Z,100.00
2022-12-15T05:56:13.388Z,100.00
2022-12-15T05:58:45.121Z,100.00
2022-12-15T06:01:15.232Z,100.00
2022-12-15T06:03:42.820Z,100.00
2022-12-15T06:06:10.969Z,100.00
2022-12-15T06:08:40.397Z,100.00
2022-12-15T06:11:07.982Z,100.00
2022-12-15T06:13:35.277Z,100.00
2022-12-15T06:16:05.095Z,100.00
2022-12-15T06:18:37.509Z,100.00
2022-12-15T06:21:09.570Z,100.00
2022-12-15T06:23:37.044Z,100.00
2022-12-15T06:26:30.967Z,100.00
2022-12-15T06:28:59.286Z,100.00
2022-12-15T06:31:26.881Z,100.00
2022-12-15T06:34:01.003Z,100.00
2022-12-15T06:36:29.252Z,100.00
2022-12-15T06:39:01.728Z,100.00
2022-12-15T06:41:32.479Z,100.00
2022-12-15T06:44:00.006Z,100.00
2022-12-15T06:46:28.158Z,100.00
2022-12-15T06:48:55.554Z,100.00
2022-12-15T06:51:22.298Z,100.00
2022-12-15T06:53:49.170Z,100.00
2022-12-15T06:56:20.406Z,100.00
2022-12-15T06:58:48.483Z,100.00
2022-12-15T07:01:15.762Z,100.00
2022-12-15T07:03:42.714Z,100.00
2022-12-15T07:06:12.341Z,100.00
2022-12-15T07:08:41.640Z,100.00
2022-12-15T07:11:11.301Z,100.00
2022-12-15T07:13:38.005Z,100.00
2022-12-15T07:16:07.074Z,100.00
2022-12-15T07:18:33.786Z,100.00
2022-12-15T07:21:09.201Z,100.00
2022-12-15T07:23:53.236Z,100.00
2022-12-15T07:26:21.687Z,100.00
2022-12-15T07:28:48.176Z,100.00
2022-12-15T07:31:15.539Z,100.00
2022-12-15T07:33:42.463Z,100.00
2022-12-15T07:36:09.117Z,100.00
2022-12-15T07:38:36.331Z,100.00
2022-12-15T07:41:05.340Z,100.00
2022-12-15T07:43:33.073Z,100.00
2022-12-15T07:46:00.379Z,100.00
2022-12-15T07:48:27.574Z,100.00
2022-12-15T07:51:05.187Z,100.00
2022-12-15T07:53:36.200Z,100.00
2022-12-15T07:56:07.859Z,100.00
2022-12-15T07:58:34.892Z,100.00
2022-12-15T08:01:03.780Z,100.00
2022-12-15T08:03:31.053Z,100.00
2022-12-15T08:06:03.882Z,100.00
2022-12-15T08:08:31.415Z,100.00
2022-12-15T08:10:58.211Z,100.00
2022-12-15T08:14:00.133Z,100.00
2022-12-15T08:16:11.822Z,100.00
2022-12-15T08:18:39.656Z,100.00
2022-12-15T08:21:08.384Z,100.00
2022-12-15T08:23:36.327Z,100.00
2022-12-15T08:26:05.916Z,100.00
2022-12-15T08:28:34.394Z,100.00
2022-12-15T08:31:09.823Z,100.00
2022-12-15T08:33:37.613Z,100.00
2022-12-15T08:36:07.874Z,100.00
2022-12-15T08:38:35.545Z,100.00
2022-12-15T08:41:15.023Z,100.00
2022-12-15T08:43:48.092Z,100.00
2022-12-15T08:46:20.033Z,100.00
2022-12-15T08:48:47.170Z,100.00
2022-12-15T08:51:14.466Z,100.00
2022-12-15T08:53:41.028Z,100.00
2022-12-15T08:56:16.515Z,100.00
2022-12-15T08:58:44.033Z,100.00
2022-12-15T09:01:23.130Z,100.00
2022-12-15T09:03:52.207Z,100.00
2022-12-15T09:06:22.247Z,100.00
2022-12-15T09:08:50.370Z,99.15
2022-12-15T09:11:17.913Z,95.29
2022-12-15T09:13:44.671Z,93.73
2022-12-15T09:16:14.839Z,95.31
2022-12-15T09:18:46.849Z,93.46
2022-12-15T09:21:14.550Z,92.49
2022-12-15T09:23:41.566Z,91.21
2022-12-15T09:26:09.961Z,92.10
2022-12-15T09:28:37.969Z,91.87
2022-12-15T09:31:05.741Z,91.50
2022-12-15T09:33:33.040Z,91.16
2022-12-15T09:36:00.392Z,88.96
2022-12-15T09:38:26.810Z,89.49
2022-12-15T09:40:53.600Z,88.99
2022-12-15T09:43:44.579Z,87.78
2022-12-15T09:46:55.820Z,87.90
2022-12-15T09:49:40.778Z,86.58
2022-12-15T09:52:13.818Z,86.99
2022-12-15T09:54:44.503Z,87.07
2022-12-15T09:57:22.628Z,87.46
2022-12-15T10:00:08.085Z,87.44
2022-12-15T10:02:50.050Z,85.41
2022-12-15T10:06:06.144Z,89.17
2022-12-15T10:08:39.401Z,87.30
2022-12-15T10:11:16.801Z,87.62
2022-12-15T10:13:46.239Z,87.81
2022-12-15T10:16:32.006Z,89.18
2022-12-15T10:19:08.811Z,87.51
2022-12-15T10:21:36.464Z,89.54
2022-12-15T10:24:37.491Z,87.97
2022-12-15T10:27:28.670Z,87.05
2022-12-15T10:30:25.367Z,88.35
2022-12-15T10:33:02.625Z,87.54
2022-12-15T10:35:30.068Z,86.99
2022-12-15T10:38:03.576Z,87.12
2022-12-15T10:40:50.566Z,87.36
2022-12-15T10:43:25.814Z,86.89
2022-12-15T10:46:13.515Z,85.60
2022-12-15T10:48:42.030Z,86.16
2022-12-15T10:51:18.169Z,85.95
2022-12-15T10:53:50.448Z,85.65
2022-12-15T10:56:32.488Z,85.06
2022-12-15T10:59:03.693Z,85.23
2022-12-15T11:01:33.893Z,85.67
2022-12-15T11:04:01.045Z,85.53
2022-12-15T11:06:31.793Z,85.96
2022-12-15T11:09:10.111Z,84.30
2022-12-15T11:12:05.677Z,83.79
2022-12-15T11:14:44.136Z,84.86
2022-12-15T11:17:16.424Z,84.63
2022-12-15T11:20:01.973Z,85.40
2022-12-15T11:22:41.281Z,84.69
2022-12-15T11:25:23.691Z,84.04
2022-12-15T11:27:54.117Z,85.28
2022-12-15T11:30:24.245Z,83.45
2022-12-15T11:32:58.230Z,84.47
2022-12-15T11:35:53.025Z,83.83
2022-12-15T11:38:31.880Z,84.06
2022-12-15T11:41:06.393Z,84.25
2022-12-15T11:43:50.264Z,83.16
2022-12-15T11:46:20.246Z,83.08
2022-12-15T11:49:09.305Z,83.17
2022-12-15T11:51:38.472Z,83.76
2022-12-15T11:54:14.805Z,83.25
2022-12-15T11:56:56.620Z,84.07
2022-12-15T11:59:29.480Z,82.69
2022-12-15T12:02:14.681Z,81.73
2022-12-15T12:05:15.496Z,82.80
2022-12-15T12:07:49.180Z,82.60
2022-12-15T12:10:34.161Z,81.73
2022-12-15T12:13:31.436Z,82.24
2022-12-15T12:16:05.934Z,82.05
2022-12-15T12:18:46.761Z,82.22
2022-12-15T12:21:24.862Z,81.93
2022-12-15T12:24:19.573Z,81.82
2022-12-15T12:26:56.893Z,80.59
2022-12-15T12:29:43.095Z,81.31
2022-12-15T12:32:34.305Z,80.93
2022-12-15T12:35:31.497Z,82.18
2022-12-15T12:38:04.480Z,82.09
2022-12-15T12:40:40.240Z,81.26
2022-12-15T12:43:13.661Z,81.63
2022-12-15T12:45:58.926Z,81.63
2022-12-15T12:48:45.191Z,80.28
2022-12-15T12:51:24.001Z,81.06
2022-12-15T12:53:51.010Z,81.34
2022-12-15T12:56:32.357Z,82.54
2022-12-15T12:58:59.197Z,82.76
2022-12-15T13:01:34.021Z,83.08
2022-12-15T13:04:34.689Z,83.21
2022-12-15T13:07:08.849Z,83.83
2022-12-15T13:09:43.622Z,84.03
2022-12-15T13:12:53.328Z,82.16
2022-12-15T13:15:33.962Z,82.88
2022-12-15T13:18:31.456Z,83.19
2022-12-15T13:23:46.122Z,83.44
2022-12-15T13:26:19.217Z,83.27
2022-12-15T13:28:50.490Z,83.94
2022-12-15T13:31:20.787Z,82.94
2022-12-15T13:33:50.533Z,84.01
2022-12-15T13:36:41.952Z,84.22
2022-12-15T13:39:11.457Z,84.54
2022-12-15T13:41:49.897Z,83.38
2022-12-15T13:44:32.717Z,83.46
2022-12-15T13:47:09.925Z,84.42
2022-12-15T13:49:53.068Z,84.94
2022-12-15T13:52:44.193Z,85.28
2022-12-15T13:55:27.801Z,85.48
2022-12-15T13:58:00.098Z,85.42
2022-12-15T14:00:26.604Z,85.31
2022-12-15T14:03:06.821Z,85.69
2022-12-15T14:05:33.569Z,85.85
2022-12-15T14:08:03.537Z,86.17
2022-12-15T14:10:38.869Z,86.52
2022-12-15T14:13:16.280Z,86.77
2022-12-15T14:15:47.532Z,87.12
2022-12-15T14:18:28.145Z,87.31
2022-12-15T14:20:55.375Z,87.24
2022-12-15T14:23:25.531Z,87.42
2022-12-15T14:25:54.035Z,87.77
2022-12-15T14:28:30.317Z,87.81
2022-12-15T14:31:05.658Z,88.06
2022-12-15T14:33:38.815Z,88.46
2022-12-15T14:36:10.329Z,88.69
2022-12-15T14:38:58.417Z,89.06
2022-12-15T14:41:27.313Z,88.79
2022-12-15T14:44:37.253Z,85.51
2022-12-15T14:46:52.090Z,81.68
2022-12-15T14:49:25.844Z,84.07
2022-12-15T14:51:58.378Z,85.05
2022-12-15T14:54:32.224Z,85.83
2022-12-15T14:57:21.242Z,86.38
2022-12-15T14:59:49.110Z,86.98
2022-12-15T15:02:29.960Z,87.16
2022-12-15T15:03:10.853Z,82.15
2022-12-15T15:04:59.726Z,87.22
2022-12-15T15:07:28.807Z,87.20
2022-12-15T15:09:56.075Z,88.25
2022-12-15T15:12:25.302Z,88.88
2022-12-15T15:14:58.917Z,89.38
2022-12-15T15:17:43.167Z,90.46
2022-12-15T15:20:21.679Z,90.52
2022-12-15T15:23:08.428Z,91.06
2022-12-15T15:25:57.650Z,91.27
2022-12-15T15:28:27.891Z,91.79
2022-12-15T15:31:06.847Z,92.04
2022-12-15T15:33:33.610Z,91.88
2022-12-15T15:36:02.117Z,91.88
2022-12-15T15:38:32.715Z,92.12
2022-12-15T15:41:02.684Z,92.90
2022-12-15T15:43:29.323Z,92.91
2022-12-15T15:46:02.894Z,93.11
2022-12-15T15:48:36.799Z,93.43
2022-12-15T15:51:05.441Z,92.80
2022-12-15T15:53:34.249Z,92.89
2022-12-15T15:56:06.494Z,92.69
2022-12-15T15:58:34.335Z,92.83
2022-12-15T16:01:02.081Z,93.12
2022-12-15T16:03:29.362Z,93.40
2022-12-15T16:05:56.402Z,92.92
2022-12-15T16:08:32.404Z,93.20
2022-12-15T16:11:00.195Z,92.36
2022-12-15T16:13:27.133Z,92.77
2022-12-15T16:15:54.208Z,93.14
2022-12-15T16:18:21.338Z,93.46
2022-12-15T16:20:51.800Z,93.38
2022-12-15T16:23:25.834Z,93.69
2022-12-15T16:25:58.172Z,93.56
2022-12-15T16:28:30.348Z,93.69
2022-12-15T16:30:59.044Z,93.64
2022-12-15T16:33:25.976Z,94.32
2022-12-15T16:35:53.490Z,94.25
2022-12-15T16:38:26.571Z,94.31
2022-12-15T16:40:55.543Z,94.55
2022-12-15T16:43:24.694Z,94.83
2022-12-15T16:45:53.454Z,94.74
2022-12-15T16:48:21.143Z,94.14
2022-12-15T16:50:58.226Z,92.59
2022-12-15T16:53:26.327Z,92.69
2022-12-15T16:55:55.411Z,92.50
2022-12-15T16:58:23.413Z,92.90
2022-12-15T17:00:50.215Z,92.85
2022-12-15T17:03:19.598Z,93.60
2022-12-15T17:05:49.643Z,93.76
2022-12-15T17:08:44.858Z,94.31
2022-12-15T17:11:15.232Z,94.81
2022-12-15T17:13:45.597Z,94.92
2022-12-15T17:16:14.612Z,95.19
2022-12-15T17:18:43.002Z,95.34
2022-12-15T17:21:16.437Z,95.16
2022-12-15T17:23:50.062Z,94.92
2022-12-15T17:26:29.730Z,94.49
2022-12-15T17:29:01.279Z,94.89
2022-12-15T17:31:34.852Z,95.21
2022-12-15T17:34:03.776Z,95.91
2022-12-15T17:36:30.371Z,96.12
2022-12-15T17:38:59.488Z,95.55
2022-12-15T17:41:58.046Z,95.44
2022-12-15T17:44:40.212Z,95.21
2022-12-15T17:47:08.729Z,95.83
2022-12-15T17:49:37.694Z,95.63
2022-12-15T17:52:34.706Z,96.08
2022-12-15T17:55:02.410Z,96.16
2022-12-15T17:57:31.986Z,95.88
2022-12-15T17:59:59.642Z,96.36
2022-12-15T18:02:26.393Z,95.71
2022-12-15T18:04:54.065Z,94.36
2022-12-15T18:07:22.880Z,94.33
2022-12-15T18:09:51.598Z,94.58
2022-12-15T18:12:20.219Z,95.41
2022-12-15T18:14:47.916Z,95.51
2022-12-15T18:17:14.942Z,95.72
2022-12-15T18:19:41.619Z,96.11
2022-12-15T18:22:15.291Z,95.83
2022-12-15T18:24:41.765Z,97.01
2022-12-15T18:27:23.934Z,97.33
2022-12-15T18:29:50.870Z,97.19
2022-12-15T18:32:17.998Z,97.62
2022-12-15T18:34:44.905Z,98.23
2022-12-15T18:37:17.878Z,98.82
2022-12-15T18:39:45.143Z,98.53
2022-12-15T18:42:16.804Z,98.38
2022-12-15T18:44:48.953Z,98.14
2022-12-15T18:47:20.641Z,98.32
2022-12-15T18:49:47.425Z,98.77
2022-12-15T18:52:18.990Z,98.36
2022-12-15T18:54:47.797Z,99.44
2022-12-15T18:57:29.275Z,99.68
2022-12-15T19:00:21.358Z,99.37
2022-12-15T19:02:48.925Z,99.89
2022-12-15T19:05:28.497Z,99.59
2022-12-15T19:07:59.304Z,100.00
2022-12-15T19:10:29.230Z,100.00
2022-12-15T19:12:58.657Z,99.94
2022-12-15T19:15:25.823Z,100.00
2022-12-15T19:18:11.326Z,99.84
2022-12-15T19:20:56.823Z,100.00
2022-12-15T19:23:23.452Z,100.00
2022-12-15T19:25:52.115Z,100.00
2022-12-15T19:28:22.740Z,100.00
2022-12-15T19:30:50.136Z,100.00
2022-12-15T19:33:17.899Z,100.00
2022-12-15T19:35:50.418Z,100.00
2022-12-15T19:38:29.853Z,100.00
2022-12-15T19:40:57.722Z,100.00
2022-12-15T19:43:25.446Z,100.00
2022-12-15T19:45:52.950Z,100.00
2022-12-15T19:48:23.344Z,100.00
2022-12-15T19:50:52.095Z,100.00
2022-12-15T19:53:27.193Z,100.00
2022-12-15T19:55:56.845Z,100.00
2022-12-15T19:58:32.369Z,100.00
2022-12-15T20:01:01.694Z,100.00
2022-12-15T20:03:30.224Z,100.00
2022-12-15T20:05:58.264Z,100.00
2022-12-15T20:08:27.349Z,100.00
2022-12-15T20:10:55.436Z,100.00
2022-12-15T20:13:22.426Z,100.00
2022-12-15T20:15:49.283Z,100.00
2022-12-15T20:18:15.830Z,100.00
2022-12-15T20:20:45.564Z,100.00
2022-12-15T20:23:31.817Z,100.00
2022-12-15T20:25:58.755Z,100.00
2022-12-15T20:28:28.127Z,100.00
2022-12-15T20:30:56.289Z,100.00
2022-12-15T20:33:23.261Z,100.00
2022-12-15T20:35:50.320Z,100.00
2022-12-15T20:38:23.091Z,100.00
2022-12-15T20:40:49.591Z,100.00
2022-12-15T20:43:18.663Z,100.00
2022-12-15T20:45:47.391Z,100.00
2022-12-15T20:48:14.649Z,100.00
2022-12-15T20:50:49.174Z,100.00
2022-12-15T20:53:19.223Z,100.00
2022-12-15T20:55:48.614Z,100.00
2022-12-15T20:58:15.348Z,100.00
2022-12-15T21:00:42.185Z,100.00
2022-12-15T21:03:18.448Z,100.00
2022-12-15T21:05:45.890Z,100.00
2022-12-15T21:08:25.577Z,100.00
2022-12-15T21:10:53.763Z,100.00
2022-12-15T21:13:27.422Z,100.00
2022-12-15T21:15:54.350Z,100.00
2022-12-15T21:19:03.605Z,100.00
2022-12-15T21:21:16.971Z,100.00
2022-12-15T21:23:43.523Z,100.00
2022-12-15T21:26:10.604Z,100.00
2022-12-15T21:28:37.075Z,100.00
2022-12-15T21:31:03.717Z,100.00
2022-12-15T21:33:30.377Z,100.00
2022-12-15T21:35:56.886Z,100.00
2022-12-15T21:38:45.223Z,100.00
2022-12-15T21:41:20.439Z,100.00
2022-12-15T21:43:47.644Z,100.00
2022-12-15T21:46:15.948Z,100.00
2022-12-15T21:49:02.181Z,100.00
2022-12-15T21:51:33.088Z,100.00
2022-12-15T21:53:59.870Z,100.00
2022-12-15T21:56:26.643Z,100.00
2022-12-15T21:58:54.950Z,100.00
2022-12-15T22:01:24.476Z,100.00
2022-12-15T22:03:53.309Z,100.00
2022-12-15T22:06:23.750Z,100.00
2022-12-15T22:08:52.457Z,100.00
2022-12-15T22:11:25.967Z,100.00
2022-12-15T22:13:53.855Z,100.00
2022-12-15T22:16:22.321Z,100.00
2022-12-15T22:18:51.975Z,100.00
2022-12-15T22:21:18.672Z,100.00
2022-12-15T22:23:47.862Z,100.00
2022-12-15T22:26:44.338Z,100.00
2022-12-15T22:29:20.621Z,100.00
2022-12-15T22:31:48.151Z,100.00
2022-12-15T22:34:18.327Z,100.00
2022-12-15T22:36:45.266Z,100.00
2022-12-15T22:39:11.789Z,100.00
2022-12-15T22:41:44.233Z,100.00
2022-12-15T22:44:26.095Z,100.00
2022-12-15T22:46:55.771Z,100.00
2022-12-15T22:49:28.570Z,100.00
2022-12-15T22:51:55.167Z,100.00
2022-12-15T22:54:23.870Z,100.00
2022-12-15T22:56:58.481Z,100.00
2022-12-15T22:59:32.666Z,100.00
2022-12-15T23:02:02.065Z,100.00
2022-12-15T23:04:30.767Z,100.00
2022-12-15T23:06:59.071Z,100.00
2022-12-15T23:09:25.616Z,100.00
2022-12-15T23:11:52.252Z,100.00
2022-12-15T23:14:39.441Z,100.00
2022-12-15T23:17:06.094Z,100.00
2022-12-15T23:19:32.643Z,100.00
2022-12-15T23:21:59.120Z,100.00
2022-12-15T23:24:25.698Z,100.00
2022-12-15T23:26:52.190Z,100.00
2022-12-15T23:29:18.895Z,100.00
2022-12-15T23:31:45.460Z,100.00
2022-12-15T23:34:12.400Z,100.00
2022-12-15T23:36:38.773Z,100.00
2022-12-15T23:39:05.316Z,100.00
2022-12-15T23:41:31.844Z,100.00
2022-12-15T23:43:58.436Z,100.00
2022-12-15T23:46:24.984Z,100.00
2022-12-15T23:48:51.877Z,100.00
2022-12-15T23:51:19.609Z,100.00
2022-12-15T23:53:47.518Z,100.00
2022-12-15T23:56:23.986Z,100.00
2022-12-15T23:58:58.938Z,100.00
